Time;durP1;ratioP1;P1;durP2;ratioP2;P2;SDS_P1;SDS_P2;PMS_P1;PMS_P2;Temp;Humidity;BMP_temperature;BMP_pressure;BME280_temperature;BME280_humidity;BME280_pressure;Samples;Min_cycle;Max_cycle;Signal;HPM_P1;HPM_P2
2022/04/03 00:00:50;;;;;;;16.95;1.88;;;;;;;;;;5112067;28;20215;-70
2022/04/03 00:03:18;;;;;;;18.05;3.08;;;;;;;;;;5111601;28;20682;-70
2022/04/03 00:05:47;;;;;;;12.73;1.85;;;;;;;;;;5111957;28;20706;-70
2022/04/03 00:08:15;;;;;;;12.25;1.60;;;;;;;;;;5110876;28;20254;-70
2022/04/03 00:10:43;;;;;;;15.18;2.20;;;;;;;;;;5111777;28;20247;-70
2022/04/03 00:13:10;;;;;;;21.75;3.17;;;;;;;;;;5085179;28;20214;-70
2022/04/03 00:15:42;;;;;;;13.70;2.10;;;;;;;;;;5092451;28;20305;-70
2022/04/03 00:18:09;;;;;;;13.73;2.25;;;;;;;;;;5092226;28;20238;-70
2022/04/03 00:20:37;;;;;;;15.75;2.15;;;;;;;;;;5092283;28;20214;-70
2022/04/03 00:23:06;;;;;;;17.55;2.78;;;;;;;;;;5108777;28;20213;-70
2022/04/03 00:25:34;;;;;;;13.25;2.17;;;;;;;;;;5111617;28;20210;-70
2022/04/03 00:28:02;;;;;;;14.02;2.22;;;;;;;;;;5111496;28;20229;-70
2022/04/03 00:30:29;;;;;;;15.02;2.65;;;;;;;;;;5111450;28;20270;-70
2022/04/03 00:32:57;;;;;;;18.00;2.00;;;;;;;;;;5111395;28;20259;-70
2022/04/03 00:35:24;;;;;;;13.68;2.05;;;;;;;;;;5111206;28;20221;-70
2022/04/03 00:37:52;;;;;;;16.48;2.40;;;;;;;;;;5091676;28;20208;-68
2022/04/03 00:40:23;;;;;;;20.85;3.55;;;;;;;;;;5091969;28;20205;-68
2022/04/03 00:42:51;;;;;;;15.73;2.50;;;;;;;;;;5091813;28;20241;-70
2022/04/03 00:45:19;;;;;;;18.92;2.95;;;;;;;;;;5091520;28;20237;-71
2022/04/03 00:47:46;;;;;;;15.60;2.80;;;;;;;;;;5091601;28;20252;-70
2022/04/03 00:50:14;;;;;;;14.00;2.60;;;;;;;;;;5091567;28;20209;-70
2022/04/03 00:52:41;;;;;;;14.50;2.33;;;;;;;;;;5091775;28;20229;-70
2022/04/03 00:55:10;;;;;;;14.27;2.78;;;;;;;;;;5091686;28;20604;-70
2022/04/03 00:57:39;;;;;;;13.52;2.00;;;;;;;;;;5091628;28;20216;-71
2022/04/03 01:00:07;;;;;;;14.18;2.40;;;;;;;;;;5091425;28;20691;-70
2022/04/03 01:02:34;;;;;;;13.85;1.92;;;;;;;;;;5091328;28;20363;-71
2022/04/03 01:05:05;;;;;;;13.07;2.28;;;;;;;;;;5091396;28;20212;-71
2022/04/03 01:07:33;;;;;;;12.93;2.00;;;;;;;;;;5091305;28;20319;-70
2022/04/03 01:10:01;;;;;;;12.18;1.55;;;;;;;;;;5091069;28;20229;-71
2022/04/03 01:12:28;;;;;;;14.15;2.25;;;;;;;;;;5091312;28;20216;-70
2022/04/03 01:14:57;;;;;;;18.38;1.92;;;;;;;;;;5091355;28;20205;-70
2022/04/03 01:17:25;;;;;;;16.63;2.42;;;;;;;;;;5090754;28;20208;-70
2022/04/03 01:19:53;;;;;;;12.50;1.77;;;;;;;;;;5090962;28;20209;-70
2022/04/03 01:22:20;;;;;;;15.82;2.08;;;;;;;;;;5091473;28;20205;-70
2022/04/03 01:24:48;;;;;;;20.58;3.50;;;;;;;;;;5091127;28;20200;-70
2022/04/03 01:27:17;;;;;;;20.58;3.28;;;;;;;;;;5090833;28;20232;-70
2022/04/03 01:29:45;;;;;;;14.05;2.35;;;;;;;;;;5110671;28;20208;-70
2022/04/03 01:32:12;;;;;;;16.83;2.40;;;;;;;;;;5110721;28;20591;-70
2022/04/03 01:34:40;;;;;;;20.77;2.13;;;;;;;;;;5110719;28;20199;-70
2022/04/03 01:37:08;;;;;;;20.58;2.97;;;;;;;;;;5110254;28;20207;-70
2022/04/03 01:39:35;;;;;;;15.20;1.80;;;;;;;;;;5110598;28;20209;-70
2022/04/03 01:42:03;;;;;;;13.55;2.05;;;;;;;;;;5110385;28;20264;-70
2022/04/03 01:44:32;;;;;;;19.55;2.30;;;;;;;;;;5110357;28;20212;-70
2022/04/03 01:46:59;;;;;;;13.35;1.55;;;;;;;;;;5110501;28;20208;-70
2022/04/03 01:49:27;;;;;;;14.88;2.15;;;;;;;;;;5110351;28;20206;-70
2022/04/03 01:51:54;;;;;;;12.80;1.90;;;;;;;;;;5110526;28;20662;-70
2022/04/03 01:54:22;;;;;;;17.13;1.83;;;;;;;;;;5110426;28;20290;-70
2022/04/03 01:56:49;;;;;;;14.43;2.05;;;;;;;;;;5110257;28;20204;-70
2022/04/03 01:59:17;;;;;;;19.48;2.95;;;;;;;;;;5110030;28;20211;-70
2022/04/03 02:01:46;;;;;;;15.20;2.15;;;;;;;;;;5110542;28;20208;-70
2022/04/03 02:04:13;;;;;;;12.88;1.85;;;;;;;;;;5110347;28;20215;-70
2022/04/03 02:06:41;;;;;;;14.30;1.95;;;;;;;;;;5110221;28;20668;-70
2022/04/03 02:09:09;;;;;;;13.52;1.90;;;;;;;;;;5109814;28;20605;-70
2022/04/03 02:11:36;;;;;;;17.42;2.47;;;;;;;;;;5110076;28;20220;-70
2022/04/03 02:14:05;;;;;;;13.57;2.03;;;;;;;;;;5110262;28;20209;-70
2022/04/03 02:16:32;;;;;;;13.15;1.88;;;;;;;;;;5110417;28;20575;-70
2022/04/03 02:19:01;;;;;;;12.70;1.90;;;;;;;;;;5109972;28;20250;-70
2022/04/03 02:21:28;;;;;;;14.52;1.75;;;;;;;;;;5110062;28;20211;-70
2022/04/03 02:23:56;;;;;;;14.88;2.00;;;;;;;;;;5110025;28;20204;-70
2022/04/03 02:26:24;;;;;;;11.85;1.58;;;;;;;;;;5109985;28;20614;-70
2022/04/03 02:28:51;;;;;;;14.73;1.95;;;;;;;;;;5110172;28;20310;-70
2022/04/03 02:31:19;;;;;;;20.20;2.78;;;;;;;;;;5109726;28;20298;-70
2022/04/03 02:33:46;;;;;;;13.48;2.08;;;;;;;;;;5113265;28;20207;-70
2022/04/03 02:36:15;;;;;;;13.02;1.70;;;;;;;;;;5113612;28;20231;-70
2022/04/03 02:38:43;;;;;;;12.90;1.90;;;;;;;;;;5113638;28;20208;-70
2022/04/03 02:41:11;;;;;;;19.83;2.97;;;;;;;;;;5113652;28;20641;-70
2022/04/03 02:43:38;;;;;;;13.73;2.00;;;;;;;;;;5113431;28;20204;-70
2022/04/03 02:46:06;;;;;;;13.95;1.73;;;;;;;;;;5113417;28;20214;-70
2022/04/03 02:48:34;;;;;;;14.85;1.80;;;;;;;;;;5113303;28;20253;-70
2022/04/03 02:51:01;;;;;;;13.40;1.85;;;;;;;;;;5113047;28;20226;-70
2022/04/03 02:53:30;;;;;;;17.45;2.20;;;;;;;;;;5113490;28;20653;-70
2022/04/03 02:55:58;;;;;;;15.80;1.90;;;;;;;;;;5113220;28;20208;-70
2022/04/03 02:58:25;;;;;;;22.85;2.10;;;;;;;;;;5113119;28;20222;-70
2022/04/03 03:00:53;;;;;;;13.32;1.85;;;;;;;;;;5113083;28;20219;-70
2022/04/03 03:03:20;;;;;;;16.98;2.28;;;;;;;;;;5112989;28;20203;-70
2022/04/03 03:05:47;;;;;;;13.75;1.90;;;;;;;;;;5113438;28;20207;-69
2022/04/03 03:08:15;;;;;;;14.13;2.17;;;;;;;;;;5112793;28;20247;-69
2022/04/03 03:10:44;;;;;;;12.68;1.70;;;;;;;;;;5113133;28;20298;-70
2022/04/03 03:13:12;;;;;;;19.70;2.90;;;;;;;;;;5112647;28;20203;-70
2022/04/03 03:15:40;;;;;;;15.57;2.90;;;;;;;;;;5112785;28;20666;-69
2022/04/03 03:18:08;;;;;;;16.60;1.60;;;;;;;;;;5112807;28;20254;-69
2022/04/03 03:20:36;;;;;;;14.45;1.80;;;;;;;;;;5112677;28;20764;-70
2022/04/03 03:23:03;;;;;;;13.50;2.03;;;;;;;;;;5112619;28;20208;-69
2022/04/03 03:25:31;;;;;;;12.20;1.63;;;;;;;;;;5112990;28;20215;-69
2022/04/03 03:28:00;;;;;;;13.45;1.92;;;;;;;;;;5086188;28;20582;-69
2022/04/03 03:30:28;;;;;;;15.43;2.20;;;;;;;;;;5092994;28;20298;-71
2022/04/03 03:32:55;;;;;;;18.05;2.33;;;;;;;;;;5092976;28;20212;-69
2022/04/03 03:35:23;;;;;;;12.57;1.50;;;;;;;;;;5092943;28;20238;-69
2022/04/03 03:37:51;;;;;;;19.30;2.65;;;;;;;;;;5092880;28;20229;-69
2022/04/03 03:40:18;;;;;;;16.00;1.90;;;;;;;;;;5092828;28;20230;-70
2022/04/03 03:42:46;;;;;;;18.73;2.03;;;;;;;;;;5092739;28;20211;-70
2022/04/03 03:45:16;;;;;;;20.25;2.90;;;;;;;;;;5092492;28;20770;-69
2022/04/03 03:47:45;;;;;;;18.40;1.73;;;;;;;;;;5093147;28;20215;-69
2022/04/03 03:50:14;;;;;;;14.77;2.50;;;;;;;;;;5092992;28;20212;-68
2022/04/03 03:52:43;;;;;;;14.05;2.28;;;;;;;;;;5093082;28;20201;-69
2022/04/03 03:55:10;;;;;;;13.55;2.00;;;;;;;;;;5092416;28;20201;-72
2022/04/03 03:57:38;;;;;;;13.57;2.00;;;;;;;;;;5092394;28;20237;-69
2022/04/03 04:00:09;;;;;;;18.23;2.30;;;;;;;;;;5092625;28;20684;-69
2022/04/03 04:02:38;;;;;;;15.27;1.80;;;;;;;;;;5092505;28;20209;-69
2022/04/03 04:05:06;;;;;;;13.75;1.85;;;;;;;;;;5092155;28;20209;-69
2022/04/03 04:07:40;;;;;;;11.55;1.63;;;;;;;;;;5092620;28;20223;-69
2022/04/03 04:10:11;;;;;;;14.10;1.85;;;;;;;;;;5092105;28;20695;-69
2022/04/03 04:12:39;;;;;;;13.90;1.90;;;;;;;;;;5092446;28;20678;-68
2022/04/03 04:15:07;;;;;;;12.80;2.25;;;;;;;;;;5091982;28;20209;-68
2022/04/03 04:17:39;;;;;;;15.13;2.03;;;;;;;;;;5092238;28;20596;-68
2022/04/03 04:20:07;;;;;;;12.98;1.90;;;;;;;;;;5092167;28;20261;-69
2022/04/03 04:22:34;;;;;;;15.52;2.13;;;;;;;;;;5091929;28;20672;-70
2022/04/03 04:25:02;;;;;;;13.32;1.85;;;;;;;;;;5092029;28;20223;-70
2022/04/03 04:27:30;;;;;;;25.70;4.55;;;;;;;;;;5091979;28;20212;-70
2022/04/03 04:29:57;;;;;;;14.20;2.15;;;;;;;;;;5092101;28;20232;-69
2022/04/03 04:32:26;;;;;;;14.73;2.80;;;;;;;;;;5091805;28;20212;-69
2022/04/03 04:34:54;;;;;;;18.55;2.42;;;;;;;;;;5091943;28;20209;-71
2022/04/03 04:37:22;;;;;;;15.98;3.20;;;;;;;;;;5091799;28;20568;-69
2022/04/03 04:39:50;;;;;;;14.48;1.90;;;;;;;;;;5091992;28;20218;-69
2022/04/03 04:42:17;;;;;;;17.48;2.35;;;;;;;;;;5092145;28;20288;-69
2022/04/03 04:44:45;;;;;;;13.85;2.05;;;;;;;;;;5091871;28;20291;-69
2022/04/03 04:47:13;;;;;;;21.58;3.35;;;;;;;;;;5091476;28;20232;-69
2022/04/03 04:49:40;;;;;;;15.18;2.33;;;;;;;;;;5091572;28;20322;-69
2022/04/03 04:52:09;;;;;;;14.30;2.30;;;;;;;;;;5091907;28;20292;-69
2022/04/03 04:54:38;;;;;;;15.75;1.85;;;;;;;;;;5091024;28;20205;-69
2022/04/03 04:57:05;;;;;;;13.63;2.50;;;;;;;;;;5091284;28;20289;-69
2022/04/03 04:59:33;;;;;;;18.20;3.65;;;;;;;;;;5091639;28;20208;-69
2022/04/03 05:02:00;;;;;;;15.65;3.50;;;;;;;;;;5091409;28;20217;-69
2022/04/03 05:04:28;;;;;;;15.98;2.92;;;;;;;;;;5091618;28;20202;-69
2022/04/03 05:06:55;;;;;;;18.00;3.47;;;;;;;;;;5091624;28;20220;-70
2022/04/03 05:09:24;;;;;;;17.25;2.95;;;;;;;;;;5090656;28;20256;-69
2022/04/03 05:11:52;;;;;;;16.23;2.90;;;;;;;;;;5091372;28;20204;-69
2022/04/03 05:14:19;;;;;;;19.48;3.47;;;;;;;;;;5091264;28;20212;-69
2022/04/03 05:16:48;;;;;;;16.80;2.92;;;;;;;;;;5091148;28;20205;-70
2022/04/03 05:19:16;;;;;;;22.52;4.00;;;;;;;;;;5091168;28;20242;-69
2022/04/03 05:21:43;;;;;;;21.55;3.72;;;;;;;;;;5084581;28;20208;-69
2022/04/03 05:24:12;;;;;;;27.63;6.20;;;;;;;;;;5091195;28;20221;-69
2022/04/03 05:26:40;;;;;;;19.50;4.60;;;;;;;;;;5091110;28;20206;-69
2022/04/03 05:29:08;;;;;;;29.88;6.57;;;;;;;;;;5090853;28;20238;-70
2022/04/03 05:31:36;;;;;;;19.50;3.63;;;;;;;;;;5091211;28;20673;-70
2022/04/03 05:34:03;;;;;;;16.88;2.45;;;;;;;;;;5091043;28;20250;-69
2022/04/03 05:36:31;;;;;;;15.55;2.63;;;;;;;;;;5091521;28;20206;-69
2022/04/03 05:38:59;;;;;;;17.83;3.90;;;;;;;;;;5090989;28;20215;-70
2022/04/03 05:41:27;;;;;;;15.95;2.13;;;;;;;;;;5091102;28;20266;-70
2022/04/03 05:43:56;;;;;;;16.63;2.95;;;;;;;;;;5090797;28;20606;-70
2022/04/03 05:46:23;;;;;;;13.93;2.13;;;;;;;;;;5090853;28;20218;-70
2022/04/03 05:48:50;;;;;;;12.87;2.20;;;;;;;;;;5090839;28;20484;-70
2022/04/03 05:51:18;;;;;;;18.70;2.97;;;;;;;;;;5090692;28;20452;-70
2022/04/03 05:53:46;;;;;;;14.33;2.60;;;;;;;;;;5090898;28;20461;-70
2022/04/03 05:56:14;;;;;;;14.50;2.30;;;;;;;;;;5090857;28;20962;-71
2022/04/03 05:58:41;;;;;;;15.20;2.33;;;;;;;;;;5090855;28;20449;-71
2022/04/03 06:01:10;;;;;;;16.23;3.17;;;;;;;;;;5090650;28;20446;-71
2022/04/03 06:03:37;;;;;;;13.70;2.10;;;;;;;;;;5090991;28;20515;-71
2022/04/03 06:06:05;;;;;;;15.30;2.23;;;;;;;;;;5090896;28;20450;-71
2022/04/03 06:08:33;;;;;;;14.33;2.00;;;;;;;;;;5093396;28;20468;-71
2022/04/03 06:11:01;;;;;;;27.77;2.63;;;;;;;;;;5114378;28;21357;-71
2022/04/03 06:13:28;;;;;;;15.40;2.60;;;;;;;;;;5114229;28;20441;-71
2022/04/03 06:15:55;;;;;;;18.57;2.90;;;;;;;;;;5114005;28;20445;-71
2022/04/03 06:18:24;;;;;;;14.90;1.90;;;;;;;;;;5113630;28;20487;-71
2022/04/03 06:20:52;;;;;;;20.33;2.40;;;;;;;;;;5113897;28;20444;-71
2022/04/03 06:23:20;;;;;;;20.53;3.23;;;;;;;;;;5113640;28;20447;-71
2022/04/03 06:25:49;;;;;;;18.83;2.93;;;;;;;;;;5113787;28;20445;-71
2022/04/03 06:28:17;;;;;;;16.30;2.60;;;;;;;;;;5113980;28;20467;-71
2022/04/03 06:30:44;;;;;;;15.73;3.00;;;;;;;;;;5113871;28;20488;-71
2022/04/03 06:33:11;;;;;;;20.13;2.90;;;;;;;;;;5113663;28;20452;-71
2022/04/03 06:35:40;;;;;;;14.90;2.60;;;;;;;;;;5113807;28;20448;-71
2022/04/03 06:38:08;;;;;;;18.53;3.33;;;;;;;;;;5113485;28;20464;-71
2022/04/03 06:40:36;;;;;;;17.17;3.73;;;;;;;;;;5113499;28;20457;-71
2022/04/03 06:43:03;;;;;;;15.80;3.03;;;;;;;;;;5113480;28;20464;-71
2022/04/03 06:45:31;;;;;;;18.30;3.60;;;;;;;;;;5113626;28;20456;-71
2022/04/03 06:48:00;;;;;;;16.10;2.63;;;;;;;;;;5113662;28;20495;-71
2022/04/03 06:50:28;;;;;;;17.50;3.30;;;;;;;;;;5113280;28;20516;-71
2022/04/03 06:52:57;;;;;;;13.67;2.60;;;;;;;;;;5113520;28;20445;-71
2022/04/03 06:55:24;;;;;;;15.10;3.17;;;;;;;;;;5113029;28;20453;-71
2022/04/03 06:57:52;;;;;;;14.03;2.30;;;;;;;;;;5113766;28;20445;-71
2022/04/03 07:00:20;;;;;;;15.30;2.63;;;;;;;;;;5087059;28;20946;-71
2022/04/03 07:02:49;;;;;;;17.77;3.47;;;;;;;;;;5093689;28;20453;-71
2022/04/03 07:05:17;;;;;;;22.63;3.83;;;;;;;;;;5093295;28;20450;-72
2022/04/03 07:07:44;;;;;;;16.60;2.97;;;;;;;;;;5093544;28;20454;-69
2022/04/03 07:10:13;;;;;;;18.53;3.57;;;;;;;;;;5093264;28;20573;-69
2022/04/03 07:12:41;;;;;;;15.63;3.10;;;;;;;;;;5093531;28;20494;-69
2022/04/03 07:15:11;;;;;;;14.60;2.63;;;;;;;;;;5093321;28;20537;-69
2022/04/03 07:17:39;;;;;;;17.75;2.90;;;;;;;;;;5092765;28;20238;-69
2022/04/03 07:20:07;;;;;;;15.57;2.67;;;;;;;;;;5093549;28;20208;-71
2022/04/03 07:22:35;;;;;;;15.15;2.47;;;;;;;;;;5093181;28;20208;-69
2022/04/03 07:25:03;;;;;;;16.60;3.20;;;;;;;;;;5092872;28;20208;-69
2022/04/03 07:27:33;;;;;;;18.50;2.90;;;;;;;;;;5112731;28;20265;-69
2022/04/03 07:30:00;;;;;;;18.38;2.75;;;;;;;;;;5112356;28;20881;-69
2022/04/03 07:32:27;;;;;;;17.33;3.27;;;;;;;;;;5112776;28;20263;-69
2022/04/03 07:34:55;;;;;;;19.40;3.27;;;;;;;;;;5112621;28;20445;-69
2022/04/03 07:37:23;;;;;;;15.63;3.00;;;;;;;;;;5112505;28;20538;-70
2022/04/03 07:39:51;;;;;;;22.87;3.87;;;;;;;;;;5112420;28;20449;-69
2022/04/03 07:42:19;;;;;;;15.57;3.20;;;;;;;;;;5112348;28;20449;-72
2022/04/03 07:44:47;;;;;;;20.53;5.40;;;;;;;;;;5112073;28;20448;-70
2022/04/03 07:47:15;;;;;;;22.50;4.60;;;;;;;;;;5111980;28;20958;-70
2022/04/03 07:49:43;;;;;;;14.87;2.50;;;;;;;;;;5112475;28;20485;-71
2022/04/03 07:52:10;;;;;;;13.27;2.43;;;;;;;;;;5112230;28;20455;-71
2022/04/03 07:54:38;;;;;;;18.23;2.97;;;;;;;;;;5112152;28;20458;-71
2022/04/03 07:57:07;;;;;;;16.10;3.17;;;;;;;;;;5111770;28;20445;-72
2022/04/03 07:59:34;;;;;;;15.07;2.87;;;;;;;;;;5112071;28;21020;-72
2022/04/03 08:02:03;;;;;;;14.90;3.50;;;;;;;;;;5111891;28;20448;-72
2022/04/03 08:04:31;;;;;;;17.43;3.13;;;;;;;;;;5111792;28;20829;-72
2022/04/03 08:06:58;;;;;;;15.10;2.70;;;;;;;;;;5112099;28;20543;-71
2022/04/03 08:09:26;;;;;;;21.60;3.80;;;;;;;;;;5111084;28;20962;-71
2022/04/03 08:11:54;;;;;;;15.83;2.90;;;;;;;;;;5111648;28;21086;-71
2022/04/03 08:14:22;;;;;;;16.53;4.13;;;;;;;;;;5111875;28;20445;-71
2022/04/03 08:16:49;;;;;;;16.77;3.03;;;;;;;;;;5111649;28;20449;-71
2022/04/03 08:19:18;;;;;;;19.73;3.77;;;;;;;;;;5111374;28;21011;-71
2022/04/03 08:21:45;;;;;;;17.77;3.50;;;;;;;;;;5111558;28;20453;-71
2022/04/03 08:24:13;;;;;;;17.00;3.70;;;;;;;;;;5111467;28;20544;-71
2022/04/03 08:26:41;;;;;;;17.00;3.30;;;;;;;;;;5111425;28;20456;-71
2022/04/03 08:29:08;;;;;;;17.80;4.30;;;;;;;;;;5111165;28;20471;-71
2022/04/03 08:31:36;;;;;;;17.63;3.90;;;;;;;;;;5111067;28;20445;-71
2022/04/03 08:34:03;;;;;;;16.17;3.73;;;;;;;;;;5111306;28;20456;-71
2022/04/03 08:36:32;;;;;;;17.27;3.70;;;;;;;;;;5111478;28;20449;-69
2022/04/03 08:39:00;;;;;;;17.53;3.67;;;;;;;;;;5111324;28;20509;-73
2022/04/03 08:41:29;;;;;;;17.43;3.77;;;;;;;;;;5111450;28;20476;-70
2022/04/03 08:43:57;;;;;;;16.27;3.63;;;;;;;;;;5111286;28;20452;-70
2022/04/03 08:46:26;;;;;;;20.27;3.90;;;;;;;;;;5111251;28;20524;-70
2022/04/03 08:48:55;;;;;;;19.40;4.37;;;;;;;;;;5111012;28;20455;-70
2022/04/03 08:51:23;;;;;;;18.97;3.90;;;;;;;;;;5110614;28;20814;-70
2022/04/03 08:53:52;;;;;;;17.93;4.60;;;;;;;;;;5111221;28;20448;-70
2022/04/03 08:56:19;;;;;;;24.93;4.80;;;;;;;;;;5111115;28;20445;-70
2022/04/03 08:58:47;;;;;;;18.80;5.07;;;;;;;;;;5111338;28;20456;-70
2022/04/03 09:01:17;;;;;;;21.10;4.70;;;;;;;;;;5110755;28;20453;-70
2022/04/03 09:03:45;;;;;;;19.27;4.80;;;;;;;;;;5111045;28;20466;-70
2022/04/03 09:06:13;;;;;;;22.67;5.40;;;;;;;;;;5084790;28;20445;-69
2022/04/03 09:08:41;;;;;;;20.23;4.83;;;;;;;;;;5091142;28;20480;-70
2022/04/03 09:11:10;;;;;;;21.90;5.30;;;;;;;;;;5091168;28;20487;-69
2022/04/03 09:13:37;;;;;;;21.47;4.93;;;;;;;;;;5091440;28;20451;-70
2022/04/03 09:16:05;;;;;;;18.27;4.10;;;;;;;;;;5091294;28;20441;-70
2022/04/03 09:18:46;;;;;;;19.90;4.23;;;;;;;;;;5090979;28;20555;-70
2022/04/03 09:21:19;;;;;;;23.87;5.80;;;;;;;;;;5091134;28;20459;-70
2022/04/03 09:24:03;;;;;;;19.63;3.77;;;;;;;;;;5091212;28;20909;-69
2022/04/03 09:26:33;;;;;;;22.47;4.03;;;;;;;;;;5091237;28;20441;-70
2022/04/03 09:29:08;;;;;;;19.10;3.80;;;;;;;;;;5091424;28;20869;-70
2022/04/03 09:31:35;;;;;;;16.93;3.70;;;;;;;;;;5091337;28;20504;-70
2022/04/03 09:34:03;;;;;;;21.07;6.27;;;;;;;;;;5091057;28;20976;-70
2022/04/03 09:36:32;;;;;;;18.70;5.20;;;;;;;;;;5091150;28;20448;-70
2022/04/03 09:39:07;;;;;;;18.90;4.33;;;;;;;;;;5091191;28;20450;-69
2022/04/03 09:41:38;;;;;;;20.43;6.60;;;;;;;;;;5093183;28;20435;-69
2022/04/03 09:44:17;;;;;;;17.37;4.00;;;;;;;;;;5095364;28;20456;-69
2022/04/03 09:46:45;;;;;;;22.80;6.17;;;;;;;;;;5095227;28;20453;-69
2022/04/03 09:49:25;;;;;;;30.33;8.77;;;;;;;;;;5094951;28;20448;-69
2022/04/03 09:51:52;;;;;;;23.03;5.97;;;;;;;;;;5094930;28;20859;-69
2022/04/03 09:54:20;;;;;;;23.90;7.93;;;;;;;;;;5095233;28;20531;-69
2022/04/03 09:56:49;;;;;;;23.03;6.47;;;;;;;;;;5094994;28;20458;-69
2022/04/03 09:59:16;;;;;;;33.00;7.73;;;;;;;;;;5094624;28;20451;-69
2022/04/03 10:01:44;;;;;;;23.77;6.90;;;;;;;;;;5094760;28;20987;-69
2022/04/03 10:04:14;;;;;;;23.50;6.77;;;;;;;;;;5094671;28;20957;-69
2022/04/03 10:06:42;;;;;;;22.60;6.80;;;;;;;;;;5095206;28;20853;-69
2022/04/03 10:09:12;;;;;;;42.80;10.43;;;;;;;;;;5093964;28;20465;-69
2022/04/03 10:11:40;;;;;;;28.50;7.33;;;;;;;;;;5087661;28;20523;-69
2022/04/03 10:14:09;;;;;;;22.40;6.53;;;;;;;;;;5094579;28;20452;-70
2022/04/03 10:16:36;;;;;;;21.67;6.40;;;;;;;;;;5094611;28;20455;-69
2022/04/03 10:19:03;;;;;;;24.60;7.93;;;;;;;;;;5094436;28;20487;-70
2022/04/03 10:21:34;;;;;;;27.27;7.87;;;;;;;;;;5094712;28;20460;-70
2022/04/03 10:24:04;;;;;;;24.15;7.20;;;;;;;;;;5094735;28;20526;-70
2022/04/03 10:26:36;;;;;;;31.38;8.10;;;;;;;;;;5094523;28;20208;-69
2022/04/03 10:29:04;;;;;;;36.30;9.70;;;;;;;;;;5094246;28;20208;-70
2022/04/03 10:31:33;;;;;;;27.10;7.53;;;;;;;;;;5094157;28;20318;-69
2022/04/03 10:34:00;;;;;;;24.95;6.13;;;;;;;;;;5094170;28;20215;-70
2022/04/03 10:36:29;;;;;;;29.73;6.93;;;;;;;;;;5094430;28;20382;-69
2022/04/03 10:39:01;;;;;;;22.13;6.38;;;;;;;;;;5094035;28;20640;-70
2022/04/03 10:41:30;;;;;;;22.73;6.17;;;;;;;;;;5087579;28;20301;-70
2022/04/03 10:44:18;;;;;;;23.17;7.00;;;;;;;;;;5113375;28;20454;-69
2022/04/03 10:47:04;;;;;;;25.47;6.63;;;;;;;;;;5113789;28;20444;-70
2022/04/03 10:49:33;;;;;;;21.90;5.80;;;;;;;;;;5113460;28;20453;-71
2022/04/03 10:52:03;;;;;;;19.80;5.30;;;;;;;;;;5113219;28;20489;-71
2022/04/03 10:54:31;;;;;;;22.40;4.60;;;;;;;;;;5112968;28;20445;-70
2022/04/03 10:57:13;;;;;;;20.83;5.77;;;;;;;;;;5113702;28;20448;-70
2022/04/03 10:59:41;;;;;;;20.10;4.63;;;;;;;;;;5112576;28;20542;-70
2022/04/03 11:02:14;;;;;;;18.07;4.63;;;;;;;;;;5113169;28;20533;-70
2022/04/03 11:04:44;;;;;;;21.30;3.87;;;;;;;;;;5113218;28;20511;-70
2022/04/03 11:07:17;;;;;;;26.37;4.97;;;;;;;;;;5112740;28;20533;-69
2022/04/03 11:09:48;;;;;;;18.47;3.43;;;;;;;;;;5112838;28;20507;-70
2022/04/03 11:12:16;;;;;;;16.87;4.00;;;;;;;;;;5113067;28;20490;-70
2022/04/03 11:14:55;;;;;;;16.83;2.73;;;;;;;;;;5112962;28;20983;-73
2022/04/03 11:17:41;;;;;;;19.17;3.90;;;;;;;;;;5112442;28;20454;-70
2022/04/03 11:20:10;;;;;;;24.40;3.27;;;;;;;;;;5112839;28;20844;-72
2022/04/03 11:22:38;;;;;;;18.10;3.97;;;;;;;;;;5112661;28;20938;-70
2022/04/03 11:25:06;;;;;;;18.93;4.37;;;;;;;;;;5112693;28;20537;-70
2022/04/03 11:27:34;;;;;;;25.43;5.00;;;;;;;;;;5112589;28;20457;-70
2022/04/03 11:30:02;;;;;;;17.33;3.80;;;;;;;;;;5112544;28;20447;-73
2022/04/03 11:32:29;;;;;;;19.77;4.05;;;;;;;;;;5112738;28;20212;-71
2022/04/03 11:35:01;;;;;;;17.05;3.25;;;;;;;;;;5112362;28;20222;-71
2022/04/03 11:37:30;;;;;;;24.83;3.63;;;;;;;;;;5112563;28;20302;-71
2022/04/03 11:39:57;;;;;;;21.83;3.90;;;;;;;;;;5112334;28;20211;-70
2022/04/03 11:42:25;;;;;;;17.97;3.90;;;;;;;;;;5112307;28;20288;-73
2022/04/03 11:44:54;;;;;;;17.42;3.55;;;;;;;;;;5112538;28;20445;-70
2022/04/03 11:47:24;;;;;;;18.10;4.07;;;;;;;;;;5112426;28;20223;-70
2022/04/03 11:50:05;;;;;;;25.30;4.45;;;;;;;;;;5112140;28;20453;-70
2022/04/03 11:52:37;;;;;;;16.27;3.70;;;;;;;;;;5112225;28;20232;-70
2022/04/03 11:55:09;;;;;;;18.65;4.22;;;;;;;;;;5111867;28;20662;-70
2022/04/03 11:57:36;;;;;;;20.83;4.05;;;;;;;;;;5112381;28;20203;-70
2022/04/03 12:00:05;;;;;;;22.63;4.60;;;;;;;;;;5111990;28;20665;-70
2022/04/03 12:02:33;;;;;;;16.57;3.37;;;;;;;;;;5112005;28;20600;-70
2022/04/03 12:05:02;;;;;;;18.67;4.13;;;;;;;;;;5111591;28;20942;-71
2022/04/03 12:07:29;;;;;;;29.03;6.13;;;;;;;;;;5111756;28;20957;-70
2022/04/03 12:09:58;;;;;;;17.60;3.17;;;;;;;;;;5111463;28;20472;-70
2022/04/03 12:12:26;;;;;;;31.63;6.20;;;;;;;;;;5112030;28;20483;-70
2022/04/03 12:14:54;;;;;;;20.43;3.50;;;;;;;;;;5111804;28;20525;-70
2022/04/03 12:17:22;;;;;;;18.93;2.67;;;;;;;;;;5111313;28;21002;-70
2022/04/03 12:19:51;;;;;;;20.20;3.40;;;;;;;;;;5111615;28;20453;-70
2022/04/03 12:22:19;;;;;;;23.17;3.57;;;;;;;;;;5111762;28;20457;-70
2022/04/03 12:24:47;;;;;;;16.60;2.50;;;;;;;;;;5111593;28;20448;-71
2022/04/03 12:27:22;;;;;;;37.80;5.07;;;;;;;;;;5111408;28;20441;-70
2022/04/03 12:29:50;;;;;;;24.10;3.80;;;;;;;;;;5111464;28;20499;-70
2022/04/03 12:32:19;;;;;;;23.10;3.50;;;;;;;;;;5111298;28;20578;-70
2022/04/03 12:34:47;;;;;;;31.93;4.30;;;;;;;;;;5111540;28;20451;-70
2022/04/03 12:37:16;;;;;;;29.70;5.50;;;;;;;;;;5111262;28;20526;-70
2022/04/03 12:39:44;;;;;;;22.80;5.07;;;;;;;;;;5111442;28;20537;-70
2022/04/03 12:42:24;;;;;;;22.60;4.30;;;;;;;;;;5111451;28;20458;-70
2022/04/03 12:44:55;;;;;;;30.87;4.53;;;;;;;;;;5111061;28;20496;-70
2022/04/03 12:47:24;;;;;;;20.53;5.73;;;;;;;;;;5111121;28;20455;-70
2022/04/03 12:49:53;;;;;;;21.73;4.53;;;;;;;;;;5111523;28;20437;-70
2022/04/03 12:52:21;;;;;;;20.43;3.83;;;;;;;;;;5111156;28;20494;-70
2022/04/03 12:54:49;;;;;;;20.20;4.60;;;;;;;;;;5111110;28;20448;-70
2022/04/03 13:00:16;;;;;;;21.83;4.00;;;;;;;;;;5111072;28;20490;-70
2022/04/03 13:02:45;;;;;;;22.03;3.70;;;;;;;;;;5111122;28;20476;-70
2022/04/03 13:05:16;;;;;;;22.80;4.20;;;;;;;;;;5110693;28;20451;-70
2022/04/03 13:07:44;;;;;;;20.80;3.60;;;;;;;;;;5110710;28;20450;-71
2022/04/03 13:10:15;;;;;;;27.10;3.87;;;;;;;;;;5110846;28;20470;-70
2022/04/03 13:12:46;;;;;;;21.67;3.67;;;;;;;;;;5084654;28;20903;-70
2022/04/03 13:15:14;;;;;;;25.00;4.47;;;;;;;;;;5084111;28;20451;-72
2022/04/03 13:17:42;;;;;;;23.10;3.50;;;;;;;;;;5090759;28;21054;-71
2022/04/03 13:20:10;;;;;;;20.27;4.00;;;;;;;;;;5091124;28;20903;-70
2022/04/03 13:22:38;;;;;;;20.70;3.10;;;;;;;;;;5091465;28;20441;-70
2022/04/03 13:25:07;;;;;;;18.10;3.73;;;;;;;;;;5090946;28;20455;-70
2022/04/03 13:27:35;;;;;;;17.23;3.13;;;;;;;;;;5091128;28;20456;-70
2022/04/03 13:30:04;;;;;;;17.13;3.17;;;;;;;;;;5091078;28;20457;-70
2022/04/03 13:32:31;;;;;;;18.83;4.00;;;;;;;;;;5090930;28;20484;-71
2022/04/03 13:35:00;;;;;;;18.90;3.90;;;;;;;;;;5091361;28;20862;-70
2022/04/03 13:37:27;;;;;;;25.73;4.10;;;;;;;;;;5091019;28;20976;-69
2022/04/03 13:39:55;;;;;;;23.10;3.90;;;;;;;;;;5091381;28;20450;-69
2022/04/03 13:42:23;;;;;;;14.63;2.65;;;;;;;;;;5091133;28;20541;-70
2022/04/03 13:44:51;;;;;;;16.87;3.13;;;;;;;;;;5091057;28;20218;-70
2022/04/03 13:47:21;;;;;;;40.50;5.40;;;;;;;;;;5090676;28;20460;-70
2022/04/03 13:49:48;;;;;;;23.85;3.70;;;;;;;;;;5091170;28;20868;-70
2022/04/03 13:52:15;;;;;;;23.85;5.32;;;;;;;;;;5091046;28;20256;-70
2022/04/03 13:54:43;;;;;;;19.80;3.40;;;;;;;;;;5091111;28;20221;-70
2022/04/03 13:57:11;;;;;;;23.73;4.32;;;;;;;;;;5090710;28;21000;-70
2022/04/03 13:59:38;;;;;;;31.03;3.77;;;;;;;;;;5091035;28;20299;-77
2022/04/03 14:02:06;;;;;;;28.40;4.40;;;;;;;;;;5090815;28;20458;-70
2022/04/03 14:04:35;;;;;;;21.40;3.95;;;;;;;;;;5090740;28;20447;-73
2022/04/03 14:07:02;;;;;;;18.00;3.10;;;;;;;;;;5110209;28;20211;-71
2022/04/03 14:09:29;;;;;;;18.40;3.50;;;;;;;;;;5109974;28;20467;-70
2022/04/03 14:11:57;;;;;;;15.02;3.40;;;;;;;;;;5110191;28;20491;-70
2022/04/03 14:14:25;;;;;;;17.85;3.35;;;;;;;;;;5110231;28;20290;-70
2022/04/03 14:16:53;;;;;;;21.48;4.80;;;;;;;;;;5110381;28;20306;-70
2022/04/03 14:19:21;;;;;;;20.60;3.72;;;;;;;;;;5110131;28;20580;-70
2022/04/03 14:21:49;;;;;;;26.52;4.35;;;;;;;;;;5110261;28;20227;-70
2022/04/03 14:24:17;;;;;;;29.85;4.35;;;;;;;;;;5110044;28;20782;-74
2022/04/03 14:26:45;;;;;;;17.95;3.40;;;;;;;;;;5110074;28;20207;-73
2022/04/03 14:29:13;;;;;;;22.05;4.53;;;;;;;;;;5112839;28;20204;-72
2022/04/03 14:31:40;;;;;;;20.85;3.95;;;;;;;;;;5113889;28;20230;-73
2022/04/03 14:34:08;;;;;;;21.60;3.50;;;;;;;;;;5114305;28;20294;-70
2022/04/03 14:36:36;;;;;;;32.45;4.72;;;;;;;;;;5113660;28;20240;-71
2022/04/03 14:39:05;;;;;;;25.98;5.18;;;;;;;;;;5113569;28;20290;-74
2022/04/03 14:41:34;;;;;;;17.92;4.43;;;;;;;;;;5114042;28;20265;-73